Time;durP1;ratioP1;P1;durP2;ratioP2;P2;SDS_P1;SDS_P2;PMS_P1;PMS_P2;Temp;Humidity;BMP_temperature;BMP_pressure;BME280_temperature;BME280_humidity;BME280_pressure;Samples;Min_cycle;Max_cycle;Signal;HPM_P1;HPM_P2
2022/03/14 00:00:16;;;;;;;11.50;7.88;;;9.80;99.90;;;;;;5092398;28;20036;-71
2022/03/14 00:02:42;;;;;;;11.63;7.40;;;9.90;99.90;;;;;;5113797;28;20024;-71
2022/03/14 00:05:09;;;;;;;9.88;7.05;;;9.90;99.90;;;;;;5105266;28;20043;-71
2022/03/14 00:07:36;;;;;;;11.95;7.60;;;9.90;99.90;;;;;;5091173;28;20104;-71
2022/03/14 00:10:06;;;;;;;9.75;7.05;;;9.90;99.90;;;;;;5090275;28;20039;-71
2022/03/14 00:12:32;;;;;;;11.27;7.05;;;9.90;99.90;;;;;;5091010;28;20083;-71
2022/03/14 00:14:59;;;;;;;9.73;6.03;;;9.90;99.90;;;;;;5091656;28;20086;-71
2022/03/14 00:17:26;;;;;;;9.35;6.25;;;9.90;99.90;;;;;;5091549;28;20047;-71
2022/03/14 00:19:53;;;;;;;9.90;6.53;;;9.90;99.90;;;;;;5091573;28;20028;-72
2022/03/14 00:22:21;;;;;;;10.05;5.97;;;9.90;99.90;;;;;;5089290;28;20044;-72
2022/03/14 00:24:47;;;;;;;8.18;6.15;;;9.90;99.90;;;;;;5091168;28;20256;-72
2022/03/14 00:27:13;;;;;;;8.65;5.55;;;9.90;99.90;;;;;;5089491;28;20500;-72
2022/03/14 00:29:38;;;;;;;8.10;5.22;;;10.00;99.90;;;;;;5092769;28;20123;-71
2022/03/14 00:32:04;;;;;;;8.40;5.50;;;10.00;99.90;;;;;;5099081;28;20044;-72
2022/03/14 00:34:30;;;;;;;7.88;5.60;;;10.00;99.90;;;;;;5091867;28;20114;-72
2022/03/14 00:36:55;;;;;;;6.55;5.18;;;10.00;99.90;;;;;;5091512;28;20488;-72
2022/03/14 00:39:21;;;;;;;6.68;4.85;;;10.00;99.90;;;;;;5089911;28;20040;-72
2022/03/14 00:41:47;;;;;;;8.70;5.40;;;10.00;99.90;;;;;;5089321;28;20040;-72
2022/03/14 00:44:15;;;;;;;8.02;5.35;;;10.00;99.90;;;;;;5092710;28;20115;-72
2022/03/14 00:46:44;;;;;;;7.20;5.07;;;10.10;99.90;;;;;;5107281;28;20106;-71
2022/03/14 00:49:11;;;;;;;6.55;5.00;;;10.10;99.90;;;;;;5115608;28;20043;-72
2022/03/14 00:51:37;;;;;;;6.88;4.68;;;10.10;99.90;;;;;;5111795;28;20085;-72
2022/03/14 00:54:03;;;;;;;7.85;4.40;;;10.10;99.90;;;;;;5097794;28;20040;-72
2022/03/14 00:56:29;;;;;;;7.20;4.95;;;10.10;99.90;;;;;;5092215;28;20047;-71
2022/03/14 00:58:55;;;;;;;6.60;4.90;;;10.10;99.90;;;;;;5093807;28;20040;-72
2022/03/14 01:01:21;;;;;;;7.07;4.80;;;10.10;99.90;;;;;;5089813;28;20035;-72
2022/03/14 01:03:47;;;;;;;7.68;4.57;;;10.10;99.90;;;;;;5090197;28;20024;-72
2022/03/14 01:06:13;;;;;;;5.82;4.60;;;10.10;99.90;;;;;;5090502;28;20057;-71
2022/03/14 01:08:39;;;;;;;4.97;3.83;;;10.10;99.90;;;;;;5089658;28;20032;-72
2022/03/14 01:11:04;;;;;;;6.30;4.22;;;10.00;99.90;;;;;;5090385;28;20549;-72
2022/03/14 01:13:30;;;;;;;4.95;3.88;;;10.10;99.90;;;;;;5089500;28;20039;-72
2022/03/14 01:15:57;;;;;;;11.27;4.20;;;10.10;99.90;;;;;;5097334;28;20050;-72
2022/03/14 01:18:23;;;;;;;6.65;3.92;;;10.10;99.90;;;;;;5096887;28;20065;-71
2022/03/14 01:20:49;;;;;;;6.35;4.55;;;10.10;99.90;;;;;;5098637;28;20123;-72
2022/03/14 01:23:14;;;;;;;6.63;3.70;;;10.20;99.90;;;;;;5090302;28;20050;-71
2022/03/14 01:25:42;;;;;;;5.82;4.00;;;10.20;99.90;;;;;;5090657;28;20198;-71
2022/03/14 01:28:08;;;;;;;5.15;4.15;;;10.20;99.90;;;;;;5090878;28;20040;-72
2022/03/14 01:30:34;;;;;;;5.43;3.97;;;10.20;99.90;;;;;;5090278;28;20059;-71
2022/03/14 01:33:00;;;;;;;4.10;3.70;;;10.20;99.90;;;;;;5087874;28;20119;-72
2022/03/14 01:35:26;;;;;;;5.32;4.00;;;10.20;99.90;;;;;;5089046;28;20039;-72
2022/03/14 01:37:52;;;;;;;5.07;3.78;;;10.20;99.90;;;;;;5090559;28;20067;-71
2022/03/14 01:40:18;;;;;;;4.40;3.53;;;10.20;99.90;;;;;;5091884;28;20725;-71
2022/03/14 01:42:45;;;;;;;5.68;3.80;;;10.20;99.90;;;;;;5093919;28;20086;-72
2022/03/14 01:45:13;;;;;;;4.63;3.83;;;10.20;99.90;;;;;;5093079;28;20349;-72
2022/03/14 01:47:41;;;;;;;6.20;4.43;;;10.20;99.90;;;;;;5092759;28;20489;-72
2022/03/14 01:50:07;;;;;;;5.97;3.30;;;10.20;99.90;;;;;;5093589;28;20524;-72
2022/03/14 01:52:34;;;;;;;4.25;3.60;;;10.10;99.90;;;;;;5095279;28;20036;-72
2022/03/14 01:55:00;;;;;;;6.63;3.28;;;10.10;99.90;;;;;;5101593;28;20032;-71
2022/03/14 01:57:27;;;;;;;4.32;3.22;;;10.20;99.90;;;;;;5100919;28;20576;-72
2022/03/14 01:59:54;;;;;;;4.82;3.58;;;10.10;99.90;;;;;;5092768;28;20507;-71
2022/03/14 02:02:20;;;;;;;4.30;3.42;;;10.10;99.90;;;;;;5093143;28;20067;-71
2022/03/14 02:04:47;;;;;;;4.07;3.50;;;10.10;99.90;;;;;;5092767;28;20397;-71
2022/03/14 02:07:13;;;;;;;5.30;3.75;;;10.10;99.90;;;;;;5092978;28;20036;-72
2022/03/14 02:09:38;;;;;;;4.35;3.65;;;10.10;99.90;;;;;;5074663;28;20032;-72
2022/03/14 02:12:06;;;;;;;4.13;3.25;;;10.20;99.90;;;;;;5093275;28;20048;-71
2022/03/14 02:14:31;;;;;;;4.70;3.95;;;10.10;99.90;;;;;;5104365;28;20067;-72
2022/03/14 02:16:57;;;;;;;4.80;2.85;;;10.10;99.90;;;;;;5119806;28;20051;-71
2022/03/14 02:19:23;;;;;;;4.00;3.60;;;10.20;99.90;;;;;;5119875;28;20028;-71
2022/03/14 02:21:49;;;;;;;3.65;3.30;;;10.10;99.90;;;;;;5107425;28;20353;-72
2022/03/14 02:24:14;;;;;;;4.50;3.50;;;10.10;99.90;;;;;;5093957;28;20043;-71
2022/03/14 02:26:41;;;;;;;3.38;3.08;;;10.10;99.90;;;;;;5093437;28;20040;-71
2022/03/14 02:29:11;;;;;;;4.55;3.75;;;10.10;99.90;;;;;;5092298;28;20075;-72
2022/03/14 02:31:37;;;;;;;4.70;3.67;;;10.20;99.90;;;;;;5097994;28;20104;-72
2022/03/14 02:34:07;;;;;;;4.63;3.60;;;10.20;99.90;;;;;;5115897;28;20045;-72
2022/03/14 02:36:38;;;;;;;5.53;3.67;;;10.10;99.90;;;;;;5104187;28;20035;-72
2022/03/14 02:39:04;;;;;;;5.25;4.07;;;10.20;99.90;;;;;;5091353;28;20058;-71
2022/03/14 02:41:29;;;;;;;4.15;3.40;;;10.20;99.90;;;;;;5090550;28;20326;-72
2022/03/14 02:43:56;;;;;;;4.45;3.53;;;10.20;99.90;;;;;;5090446;28;20044;-71
2022/03/14 02:46:21;;;;;;;6.45;3.55;;;10.20;99.90;;;;;;5090899;28;20048;-72
2022/03/14 02:48:47;;;;;;;7.22;3.78;;;10.20;99.90;;;;;;5090909;28;20483;-72
2022/03/14 02:51:13;;;;;;;6.90;3.25;;;10.20;99.90;;;;;;5091963;28;20035;-72
2022/03/14 02:53:39;;;;;;;4.47;3.67;;;10.20;99.90;;;;;;5090077;28;20445;-72
2022/03/14 02:56:04;;;;;;;4.03;3.35;;;10.20;99.90;;;;;;5090572;28;20085;-72
2022/03/14 02:58:32;;;;;;;4.35;3.80;;;10.20;99.90;;;;;;5074053;28;20492;-72
2022/03/14 03:00:58;;;;;;;4.07;3.42;;;10.20;99.90;;;;;;5090786;28;20086;-72
2022/03/14 03:03:23;;;;;;;4.88;3.47;;;10.20;99.90;;;;;;5089671;28;20036;-72
2022/03/14 03:05:49;;;;;;;3.75;3.10;;;10.20;99.90;;;;;;5091035;28;20113;-72
2022/03/14 03:08:15;;;;;;;4.20;3.47;;;10.30;99.90;;;;;;5089729;28;20075;-72
2022/03/14 03:10:42;;;;;;;4.72;3.45;;;10.20;99.90;;;;;;5090414;28;20039;-72
2022/03/14 03:13:10;;;;;;;4.10;3.67;;;10.20;99.90;;;;;;5089946;28;20546;-72
2022/03/14 03:15:37;;;;;;;4.88;3.33;;;10.30;99.90;;;;;;5091731;28;20517;-72
2022/03/14 03:18:04;;;;;;;4.20;3.10;;;10.30;99.90;;;;;;5099991;28;20040;-72
2022/03/14 03:20:30;;;;;;;4.70;3.30;;;10.20;99.90;;;;;;5097324;28;20044;-72
2022/03/14 03:22:55;;;;;;;4.10;3.45;;;10.30;99.90;;;;;;5088902;28;20515;-72
2022/03/14 03:25:21;;;;;;;4.50;3.70;;;10.20;99.90;;;;;;5090040;28;20487;-72
2022/03/14 03:27:47;;;;;;;3.33;2.92;;;10.30;99.90;;;;;;5091619;28;20527;-72
2022/03/14 03:30:12;;;;;;;3.47;3.17;;;10.20;99.90;;;;;;5073167;28;20478;-72
2022/03/14 03:32:38;;;;;;;3.50;3.20;;;10.30;99.90;;;;;;5053290;28;1035833;-72
2022/03/14 03:35:04;;;;;;;3.88;3.45;;;10.30;99.90;;;;;;5091966;28;20052;-72
2022/03/14 03:37:30;;;;;;;4.63;3.55;;;10.20;99.90;;;;;;5091529;28;20509;-72
2022/03/14 03:39:56;;;;;;;3.65;3.05;;;10.30;99.90;;;;;;5098250;28;20074;-71
2022/03/14 03:42:21;;;;;;;2.90;2.60;;;10.30;99.90;;;;;;5114480;28;20056;-72
2022/03/14 03:44:47;;;;;;;4.55;2.92;;;10.30;99.90;;;;;;5116580;28;20058;-72
2022/03/14 03:47:12;;;;;;;4.15;2.83;;;10.30;99.90;;;;;;5117229;28;20048;-72
2022/03/14 03:49:38;;;;;;;4.53;2.90;;;10.20;99.90;;;;;;5116747;28;20042;-73
2022/03/14 03:52:05;;;;;;;3.83;2.80;;;10.20;99.90;;;;;;5109049;28;20120;-73
2022/03/14 03:54:31;;;;;;;3.70;2.65;;;10.20;99.90;;;;;;5112922;28;20032;-73
2022/03/14 03:56:56;;;;;;;3.67;3.05;;;10.20;99.90;;;;;;5095138;28;20494;-72
2022/03/14 03:59:22;;;;;;;4.47;3.50;;;10.20;99.90;;;;;;5094167;28;20032;-72
2022/03/14 04:01:48;;;;;;;5.97;3.05;;;10.30;99.90;;;;;;5090050;28;20412;-73
2022/03/14 04:04:14;;;;;;;3.47;2.67;;;10.20;99.90;;;;;;5091227;28;20047;-72
2022/03/14 04:06:41;;;;;;;4.70;3.08;;;10.20;99.90;;;;;;5073733;28;20751;-72
2022/03/14 04:09:07;;;;;;;5.40;3.28;;;10.20;99.90;;;;;;5090865;28;20174;-73
2022/03/14 04:11:35;;;;;;;4.00;3.17;;;10.30;99.90;;;;;;5072919;28;20111;-72
2022/03/14 04:14:02;;;;;;;4.25;3.60;;;10.20;99.90;;;;;;5091656;28;20065;-72
2022/03/14 04:16:29;;;;;;;6.40;3.15;;;10.30;99.90;;;;;;5091538;28;20039;-72
2022/03/14 04:18:55;;;;;;;6.90;3.30;;;10.20;99.90;;;;;;5089489;28;20119;-72
2022/03/14 04:21:21;;;;;;;4.97;3.45;;;10.30;99.90;;;;;;5091174;28;20058;-72
2022/03/14 04:23:48;;;;;;;4.72;3.83;;;10.20;99.90;;;;;;5090841;28;20452;-72
2022/03/14 04:26:13;;;;;;;3.85;3.47;;;10.20;99.90;;;;;;5091369;28;20119;-72
2022/03/14 04:28:41;;;;;;;3.85;3.30;;;10.20;99.90;;;;;;5091531;28;20500;-72
2022/03/14 04:31:07;;;;;;;7.20;3.28;;;10.20;99.90;;;;;;5072848;28;20062;-72
2022/03/14 04:33:33;;;;;;;4.22;3.45;;;10.20;99.90;;;;;;5072086;28;20058;-72
2022/03/14 04:35:59;;;;;;;5.75;4.10;;;10.20;99.90;;;;;;5091208;28;20036;-72
2022/03/14 04:38:26;;;;;;;4.25;3.50;;;10.20;99.90;;;;;;5091017;28;20055;-72
2022/03/14 04:40:52;;;;;;;4.85;3.33;;;10.20;99.90;;;;;;5098561;28;20036;-72
2022/03/14 04:43:18;;;;;;;5.35;3.90;;;10.20;99.90;;;;;;5100288;28;20040;-72
2022/03/14 04:45:43;;;;;;;6.85;3.67;;;10.20;99.90;;;;;;5092565;28;20048;-72
2022/03/14 04:48:09;;;;;;;5.15;3.70;;;10.20;99.90;;;;;;5089009;28;20381;-72
2022/03/14 04:50:36;;;;;;;5.55;3.90;;;10.20;99.90;;;;;;5089714;28;20055;-72
2022/03/14 04:53:02;;;;;;;5.00;3.72;;;10.20;99.90;;;;;;5088534;28;20064;-72
2022/03/14 04:55:28;;;;;;;5.05;3.47;;;10.20;99.90;;;;;;5089864;28;20081;-72
2022/03/14 04:57:54;;;;;;;4.50;3.60;;;10.20;99.90;;;;;;5089330;28;20096;-72
2022/03/14 05:00:20;;;;;;;5.13;3.50;;;10.20;99.90;;;;;;5090817;28;20449;-72
2022/03/14 05:02:45;;;;;;;5.47;3.78;;;10.10;99.90;;;;;;5088483;28;20126;-72
2022/03/14 05:05:11;;;;;;;4.15;3.58;;;10.10;99.90;;;;;;5104234;28;20080;-71
2022/03/14 05:07:38;;;;;;;3.92;3.30;;;10.10;99.90;;;;;;5111440;28;20055;-71
2022/03/14 05:10:06;;;;;;;5.38;3.80;;;10.10;99.90;;;;;;5091533;28;20544;-71
2022/03/14 05:12:32;;;;;;;7.07;3.92;;;10.10;99.90;;;;;;5090489;28;20040;-71
2022/03/14 05:14:58;;;;;;;4.60;3.92;;;10.10;99.90;;;;;;5102461;28;20080;-72
2022/03/14 05:17:25;;;;;;;6.18;4.18;;;10.10;99.90;;;;;;5116875;28;20065;-71
2022/03/14 05:19:50;;;;;;;5.55;4.05;;;10.00;99.90;;;;;;5107440;28;20047;-71
2022/03/14 05:22:18;;;;;;;4.72;4.13;;;10.00;99.90;;;;;;5089099;28;20040;-71
2022/03/14 05:24:44;;;;;;;5.30;4.03;;;10.00;99.90;;;;;;5091428;28;20036;-71
2022/03/14 05:27:10;;;;;;;6.03;4.00;;;10.00;99.90;;;;;;5089242;28;20054;-71
2022/03/14 05:29:36;;;;;;;4.80;3.95;;;9.90;99.90;;;;;;5090859;28;20066;-71
2022/03/14 05:32:02;;;;;;;4.10;3.45;;;9.90;99.90;;;;;;5089477;28;20500;-71
2022/03/14 05:34:28;;;;;;;6.50;3.92;;;9.90;99.90;;;;;;5090440;28;20047;-71
2022/03/14 05:36:53;;;;;;;4.80;3.72;;;9.90;99.90;;;;;;5072227;28;20122;-72
2022/03/14 05:39:19;;;;;;;4.88;3.80;;;9.80;99.90;;;;;;5088709;28;20048;-71
2022/03/14 05:41:44;;;;;;;5.20;4.18;;;9.80;99.90;;;;;;5087976;28;20476;-72
2022/03/14 05:44:10;;;;;;;5.07;4.43;;;9.70;99.90;;;;;;5071828;28;20097;-71
2022/03/14 05:46:35;;;;;;;4.85;3.75;;;9.70;99.90;;;;;;5090133;28;20488;-72
2022/03/14 05:49:01;;;;;;;4.63;3.92;;;9.70;99.90;;;;;;5088569;28;20036;-71
2022/03/14 05:51:27;;;;;;;4.40;3.92;;;9.70;99.90;;;;;;5090067;28;20143;-71
2022/03/14 05:53:52;;;;;;;6.60;4.07;;;9.70;99.90;;;;;;5088007;28;20090;-71
2022/03/14 05:56:18;;;;;;;5.25;3.83;;;9.70;99.90;;;;;;5088951;28;20047;-71
2022/03/14 05:58:43;;;;;;;7.68;4.47;;;9.60;99.90;;;;;;5072114;28;20036;-71
2022/03/14 06:01:10;;;;;;;4.88;4.05;;;9.60;99.90;;;;;;5089819;28;20044;-70
2022/03/14 06:03:36;;;;;;;5.35;3.95;;;9.60;99.90;;;;;;5089174;28;20051;-69
2022/03/14 06:06:02;;;;;;;5.47;4.20;;;9.60;99.90;;;;;;5090140;28;20124;-69
2022/03/14 06:08:28;;;;;;;5.93;4.22;;;9.50;99.90;;;;;;5069693;28;20056;-69
2022/03/14 06:10:54;;;;;;;6.82;5.05;;;9.50;99.90;;;;;;5089253;28;20122;-69
2022/03/14 06:13:20;;;;;;;5.00;3.85;;;9.50;99.90;;;;;;5081355;28;20112;-69
2022/03/14 06:15:47;;;;;;;5.50;4.45;;;9.40;99.90;;;;;;5079371;28;20071;-69
2022/03/14 06:18:13;;;;;;;5.25;4.15;;;9.40;99.90;;;;;;5082690;28;20043;-70
2022/03/14 06:20:39;;;;;;;7.20;4.38;;;9.40;99.90;;;;;;5099794;28;20070;-69
2022/03/14 06:23:04;;;;;;;6.75;4.35;;;9.40;99.90;;;;;;5091127;28;20035;-70
2022/03/14 06:25:30;;;;;;;5.20;4.30;;;9.40;99.90;;;;;;5089693;28;20428;-71
2022/03/14 06:27:56;;;;;;;6.68;4.93;;;9.40;99.90;;;;;;5092415;28;20468;-70
2022/03/14 06:30:21;;;;;;;6.88;4.70;;;9.40;99.90;;;;;;5091712;28;20074;-71
2022/03/14 06:32:48;;;;;;;5.50;4.40;;;9.30;99.90;;;;;;5087860;28;20089;-71
2022/03/14 06:35:16;;;;;;;7.53;4.40;;;9.30;99.90;;;;;;5089503;28;20411;-71
2022/03/14 06:37:45;;;;;;;7.15;4.90;;;9.30;99.90;;;;;;5093845;28;20048;-70
2022/03/14 06:40:11;;;;;;;6.05;4.85;;;9.30;99.90;;;;;;5093864;28;20147;-70
2022/03/14 06:42:38;;;;;;;6.97;4.75;;;9.30;99.90;;;;;;5093589;28;20152;-71
2022/03/14 06:45:04;;;;;;;10.15;4.80;;;9.30;99.90;;;;;;5115165;28;20047;-70
2022/03/14 06:47:32;;;;;;;6.55;5.00;;;9.30;99.90;;;;;;5117310;28;20027;-70
2022/03/14 06:49:57;;;;;;;7.65;5.32;;;9.20;99.90;;;;;;5099402;28;20052;-70
2022/03/14 06:52:23;;;;;;;6.63;5.05;;;9.20;99.90;;;;;;5093640;28;20412;-71
2022/03/14 06:54:49;;;;;;;6.43;5.05;;;9.20;99.90;;;;;;5075532;28;20492;-70
2022/03/14 06:57:15;;;;;;;7.97;5.63;;;9.20;99.90;;;;;;5091614;28;20040;-71
2022/03/14 06:59:40;;;;;;;7.45;5.45;;;9.20;99.90;;;;;;5093276;28;20122;-71
2022/03/14 07:02:07;;;;;;;6.95;5.05;;;9.20;99.90;;;;;;5091805;28;20081;-70
2022/03/14 07:04:34;;;;;;;7.53;5.25;;;9.20;99.90;;;;;;5091303;28;20349;-70
2022/03/14 07:07:01;;;;;;;8.98;5.32;;;9.20;99.90;;;;;;5090937;28;20036;-71
2022/03/14 07:09:26;;;;;;;8.63;5.97;;;9.30;99.90;;;;;;5089730;28;20454;-71
2022/03/14 07:11:52;;;;;;;9.43;5.43;;;9.20;99.90;;;;;;5091622;28;20040;-70
2022/03/14 07:14:22;;;;;;;7.65;5.75;;;9.20;99.90;;;;;;5074318;28;20082;-69
2022/03/14 07:16:48;;;;;;;8.60;6.25;;;9.20;99.90;;;;;;5092034;28;20082;-70
2022/03/14 07:19:14;;;;;;;7.38;5.30;;;9.30;99.90;;;;;;5092549;28;20086;-69
2022/03/14 07:21:40;;;;;;;8.60;6.10;;;9.30;99.90;;;;;;5090564;28;20161;-69
2022/03/14 07:24:06;;;;;;;8.93;5.90;;;9.20;99.90;;;;;;5081565;28;20044;-69
2022/03/14 07:26:32;;;;;;;7.25;5.38;;;9.20;99.90;;;;;;5080171;28;20408;-69
2022/03/14 07:28:58;;;;;;;7.75;6.10;;;9.10;99.90;;;;;;5091902;28;20032;-69
2022/03/14 07:31:24;;;;;;;9.23;6.55;;;9.20;99.90;;;;;;5091476;28;20047;-69
2022/03/14 07:33:51;;;;;;;10.10;6.32;;;9.20;99.90;;;;;;5090670;28;20048;-69
2022/03/14 07:36:17;;;;;;;10.60;6.65;;;9.30;99.90;;;;;;5084909;28;20036;-69
2022/03/14 07:38:43;;;;;;;8.82;6.28;;;9.20;99.90;;;;;;5078536;28;20082;-69
2022/03/14 07:41:10;;;;;;;8.35;5.70;;;9.20;99.90;;;;;;5088617;28;20066;-69
2022/03/14 07:43:36;;;;;;;8.73;6.20;;;9.20;99.90;;;;;;5091181;28;20055;-68
2022/03/14 07:46:02;;;;;;;8.82;6.38;;;9.30;99.90;;;;;;5090425;28;20039;-69
2022/03/14 07:48:28;;;;;;;9.43;6.63;;;9.30;99.90;;;;;;5091706;28;20047;-69
2022/03/14 07:50:54;;;;;;;9.10;6.75;;;9.30;99.90;;;;;;5091847;28;20122;-69
2022/03/14 07:53:20;;;;;;;8.45;6.22;;;9.30;99.90;;;;;;5090798;28;20126;-70
2022/03/14 07:55:45;;;;;;;9.60;7.22;;;9.30;99.90;;;;;;5091758;28;20069;-69
2022/03/14 07:58:11;;;;;;;9.50;7.07;;;9.30;99.90;;;;;;5091836;28;20063;-69
2022/03/14 08:00:37;;;;;;;9.77;7.13;;;9.30;99.90;;;;;;5090189;28;20346;-69
2022/03/14 08:03:02;;;;;;;9.70;6.45;;;9.30;99.90;;;;;;5090538;28;20075;-69
2022/03/14 08:05:28;;;;;;;13.07;7.13;;;9.30;99.90;;;;;;5089978;28;20036;-69
2022/03/14 08:07:54;;;;;;;7.60;6.47;;;9.40;99.90;;;;;;5089921;28;20040;-69
2022/03/14 08:10:20;;;;;;;12.88;8.05;;;9.30;99.90;;;;;;5099281;28;20055;-70
2022/03/14 08:12:49;;;;;;;11.73;7.05;;;9.40;99.90;;;;;;5115131;28;20040;-70
2022/03/14 08:15:23;;;;;;;11.43;7.32;;;9.40;99.90;;;;;;5107690;28;20499;-70
2022/03/14 08:17:50;;;;;;;8.98;6.82;;;9.40;99.90;;;;;;5091592;28;20446;-69
2022/03/14 08:20:16;;;;;;;12.20;7.55;;;9.40;99.90;;;;;;5091704;28;20127;-69
2022/03/14 08:22:41;;;;;;;10.45;7.72;;;9.40;99.90;;;;;;5090437;28;20043;-69
2022/03/14 08:25:08;;;;;;;11.95;7.65;;;9.40;99.90;;;;;;5091351;28;20028;-69
2022/03/14 08:27:34;;;;;;;11.05;7.50;;;9.40;99.90;;;;;;5090833;28;20078;-69
2022/03/14 08:29:59;;;;;;;11.82;7.40;;;9.40;99.90;;;;;;5091234;28;20504;-69
2022/03/14 08:32:25;;;;;;;12.05;7.80;;;9.40;99.90;;;;;;5090307;28;20040;-69
2022/03/14 08:34:53;;;;;;;10.77;8.00;;;9.40;99.90;;;;;;5090949;28;20080;-69
2022/03/14 08:37:19;;;;;;;11.40;7.43;;;9.50;99.90;;;;;;5081609;28;20036;-70
2022/03/14 08:39:46;;;;;;;11.60;7.70;;;9.50;99.90;;;;;;5058166;28;20048;-70
2022/03/14 08:42:12;;;;;;;11.63;7.78;;;9.50;99.90;;;;;;5058970;28;20044;-70
2022/03/14 08:44:37;;;;;;;11.68;8.40;;;9.50;99.90;;;;;;5061435;28;20459;-72
2022/03/14 08:47:03;;;;;;;12.20;8.43;;;9.50;99.90;;;;;;5070720;28;20459;-73
2022/03/14 08:49:29;;;;;;;13.02;8.82;;;9.50;99.90;;;;;;5071259;28;20625;-70
2022/03/14 08:51:55;;;;;;;12.68;8.98;;;9.60;99.90;;;;;;5074474;28;20111;-70
2022/03/14 08:54:20;;;;;;;15.23;8.88;;;9.50;99.90;;;;;;5078455;28;20044;-70
2022/03/14 08:56:46;;;;;;;14.35;9.10;;;9.60;99.90;;;;;;5073734;28;20459;-70
2022/03/14 08:59:12;;;;;;;12.02;9.32;;;9.60;99.90;;;;;;5070443;28;20455;-71
2022/03/14 09:01:38;;;;;;;12.93;8.98;;;9.60;99.90;;;;;;5069780;28;20480;-71
2022/03/14 09:04:05;;;;;;;14.13;9.68;;;9.60;99.90;;;;;;5069776;28;20047;-71
2022/03/14 09:06:35;;;;;;;13.52;9.85;;;9.50;99.90;;;;;;5070706;28;20444;-71
2022/03/14 09:09:01;;;;;;;17.67;10.95;;;9.50;99.90;;;;;;5068985;28;20052;-71
2022/03/14 09:11:26;;;;;;;16.92;11.45;;;9.50;99.90;;;;;;5068828;28;20132;-71
2022/03/14 09:13:52;;;;;;;18.55;12.15;;;9.50;99.90;;;;;;5069620;28;20455;-71
2022/03/14 09:16:20;;;;;;;21.73;13.27;;;9.50;99.90;;;;;;5070020;28;20043;-71
2022/03/14 09:18:46;;;;;;;21.52;14.35;;;9.60;99.90;;;;;;5069480;28;20040;-72
2022/03/14 09:21:14;;;;;;;20.58;13.18;;;9.60;99.90;;;;;;5067054;28;20048;-72
2022/03/14 09:23:43;;;;;;;20.95;13.60;;;9.60;99.90;;;;;;5067860;28;20121;-72
2022/03/14 09:26:09;;;;;;;25.25;14.73;;;9.50;99.90;;;;;;5068357;28;20036;-72
2022/03/14 09:28:36;;;;;;;19.85;13.35;;;9.50;99.90;;;;;;5057630;28;20498;-72
2022/03/14 09:31:03;;;;;;;21.90;11.75;;;9.50;99.90;;;;;;5058552;28;20103;-73
2022/03/14 09:33:29;;;;;;;17.75;12.85;;;9.50;99.90;;;;;;5071513;28;20039;-71
2022/03/14 09:35:54;;;;;;;15.23;11.10;;;9.50;99.90;;;;;;5074492;28;20119;-72
2022/03/14 09:38:20;;;;;;;16.38;10.25;;;9.50;99.90;;;;;;5071010;28;20052;-72
2022/03/14 09:40:47;;;;;;;15.48;11.07;;;9.50;99.90;;;;;;5046312;28;20052;-72
2022/03/14 09:43:19;;;;;;;15.65;9.88;;;9.50;99.90;;;;;;5072800;28;20045;-73
2022/03/14 09:45:50;;;;;;;11.07;7.80;;;9.50;99.90;;;;;;5071385;28;20100;-73
2022/03/14 09:48:17;;;;;;;14.38;8.68;;;9.50;99.90;;;;;;5088931;28;20100;-73
2022/03/14 09:50:44;;;;;;;13.27;7.40;;;9.60;99.90;;;;;;5081231;28;20568;-73
2022/03/14 09:53:13;;;;;;;10.10;7.47;;;9.60;99.90;;;;;;5069013;28;20040;-73
2022/03/14 09:55:41;;;;;;;17.50;8.00;;;9.60;99.90;;;;;;5069611;28;20036;-73
2022/03/14 09:58:12;;;;;;;15.98;8.73;;;9.60;99.90;;;;;;5068657;28;20044;-72
2022/03/14 10:00:38;;;;;;;15.13;8.93;;;9.50;99.90;;;;;;5082241;28;20029;-73
2022/03/14 10:03:04;;;;;;;20.50;11.00;;;9.50;99.90;;;;;;5095675;28;20040;-72
2022/03/14 10:05:30;;;;;;;18.75;10.63;;;9.60;99.90;;;;;;5074956;28;20056;-72
2022/03/14 10:07:56;;;;;;;20.38;11.45;;;9.50;99.90;;;;;;5071851;28;20036;-71
2022/03/14 10:10:22;;;;;;;21.77;10.88;;;9.60;99.90;;;;;;5069235;28;20151;-72
2022/03/14 10:12:57;;;;;;;17.98;11.88;;;9.50;99.90;;;;;;5044601;28;20048;-72
2022/03/14 10:15:25;;;;;;;20.42;11.77;;;9.50;99.90;;;;;;5035414;28;20049;-71
2022/03/14 10:17:52;;;;;;;18.55;11.95;;;9.60;99.90;;;;;;5052217;28;20051;-72
2022/03/14 10:20:18;;;;;;;21.83;11.40;;;9.70;99.90;;;;;;5062724;28;20350;-71
2022/03/14 10:22:45;;;;;;;20.65;12.55;;;9.70;99.90;;;;;;5068491;28;20056;-71
2022/03/14 10:25:13;;;;;;;22.77;11.27;;;9.70;99.90;;;;;;5071374;28;20056;-71
2022/03/14 10:27:44;;;;;;;19.42;10.05;;;9.70;99.90;;;;;;5071463;28;20371;-72
2022/03/14 10:30:23;;;;;;;22.65;10.02;;;9.70;99.90;;;;;;5071627;28;20043;-71
2022/03/14 10:32:49;;;;;;;23.35;10.02;;;9.80;99.90;;;;;;5070695;28;20075;-71
2022/03/14 10:35:22;;;;;;;22.70;10.88;;;9.80;99.90;;;;;;5071237;28;20129;-72
2022/03/14 10:38:06;;;;;;;24.98;10.85;;;9.80;99.90;;;;;;5071260;28;20056;-71
2022/03/14 10:40:39;;;;;;;21.48;10.45;;;9.90;99.90;;;;;;5072772;28;20408;-71
2022/03/14 10:43:29;;;;;;;19.08;10.10;;;9.90;99.90;;;;;;5072062;28;20501;-71
2022/03/14 10:45:56;;;;;;;16.77;9.38;;;9.90;99.90;;;;;;5070992;28;20053;-71
2022/03/14 10:48:38;;;;;;;23.67;10.45;;;9.90;99.90;;;;;;5070943;28;20063;-71
2022/03/14 10:51:09;;;;;;;19.98;9.15;;;9.90;99.90;;;;;;5072984;28;20036;-71
2022/03/14 10:53:40;;;;;;;18.25;7.80;;;10.00;99.90;;;;;;5072710;28;20086;-70
2022/03/14 10:56:09;;;;;;;13.68;7.55;;;9.90;99.90;;;;;;5095405;28;20052;-71
2022/03/14 10:58:35;;;;;;;18.45;7.47;;;10.00;99.90;;;;;;5086752;28;20047;-71
2022/03/14 11:01:08;;;;;;;17.67;7.53;;;10.00;99.90;;;;;;5065338;28;20549;-71
2022/03/14 11:03:41;;;;;;;12.85;6.80;;;9.90;99.90;;;;;;5082168;28;20127;-71
2022/03/14 11:06:09;;;;;;;15.27;7.60;;;10.00;99.90;;;;;;5091687;28;20496;-70
2022/03/14 11:08:43;;;;;;;19.50;7.10;;;10.00;99.90;;;;;;5091822;28;20088;-70
2022/03/14 11:11:17;;;;;;;14.65;6.32;;;10.10;99.90;;;;;;5105015;28;20047;-70
2022/03/14 11:13:45;;;;;;;11.88;6.28;;;10.10;99.90;;;;;;5103560;28;20173;-70
2022/03/14 11:16:20;;;;;;;16.25;5.70;;;10.10;99.90;;;;;;5093267;28;20105;-70
2022/03/14 11:18:46;;;;;;;16.60;6.45;;;10.20;99.90;;;;;;5092029;28;20066;-70
2022/03/14 11:21:20;;;;;;;15.07;6.25;;;10.20;99.90;;;;;;5091465;28;20043;-70
2022/03/14 11:23:48;;;;;;;11.73;5.18;;;10.30;99.90;;;;;;5090560;28;20405;-70
2022/03/14 11:26:18;;;;;;;10.57;5.47;;;10.30;99.90;;;;;;5091915;28;20048;-70
2022/03/14 11:28:46;;;;;;;11.70;4.97;;;10.40;99.90;;;;;;5092601;28;20105;-71
2022/03/14 11:31:13;;;;;;;14.85;4.50;;;10.40;99.90;;;;;;5092450;28;20087;-72
2022/03/14 11:33:41;;;;;;;13.52;4.82;;;10.40;99.90;;;;;;5090355;28;20082;-72
2022/03/14 11:36:07;;;;;;;8.65;4.75;;;10.50;99.90;;;;;;5091817;28;20048;-71
2022/03/14 11:38:34;;;;;;;13.15;5.28;;;10.40;99.90;;;;;;5090783;28;20056;-71
2022/03/14 11:41:00;;;;;;;12.95;4.68;;;10.50;99.90;;;;;;5090744;28;20169;-71
2022/03/14 11:43:27;;;;;;;14.13;4.55;;;10.50;99.90;;;;;;5091255;28;20048;-71
2022/03/14 11:45:54;;;;;;;15.90;4.18;;;10.50;99.90;;;;;;5091924;28;20044;-71
2022/03/14 11:48:21;;;;;;;12.60;4.45;;;10.50;99.90;;;;;;5091371;28;20035;-71
2022/03/14 11:50:57;;;;;;;14.23;4.05;;;10.50;99.90;;;;;;5090507;28;20120;-72
2022/03/14 11:53:25;;;;;;;15.48;5.05;;;10.50;99.90;;;;;;5089802;28;20127;-73
2022/03/14 11:55:57;;;;;;;13.32;4.63;;;10.50;99.90;;;;;;5063423;28;20049;-73
2022/03/14 11:58:31;;;;;;;11.00;4.45;;;10.50;99.90;;;;;;5059965;28;20036;-73
2022/03/14 12:01:12;;;;;;;14.13;5.38;;;10.60;99.90;;;;;;5040790;28;20041;-73
2022/03/14 12:03:43;;;;;;;18.88;5.47;;;10.60;99.90;;;;;;5059223;28;20044;-73
2022/03/14 12:06:08;;;;;;;12.18;5.57;;;10.60;99.90;;;;;;5061921;28;20061;-73
2022/03/14 12:08:37;;;;;;;17.85;6.32;;;10.60;99.90;;;;;;5058804;28;20064;-73
2022/03/14 12:11:34;;;;;;;16.27;6.65;;;10.60;99.90;;;;;;5073520;28;20056;-74
2022/03/14 12:14:00;;;;;;;23.20;7.90;;;10.70;99.90;;;;;;5090418;28;20161;-72
2022/03/14 12:16:45;;;;;;;16.10;7.90;;;10.80;99.90;;;;;;5086673;28;20097;-75
2022/03/14 12:19:30;;;;;;;15.63;8.65;;;10.80;99.90;;;;;;5072051;28;20067;-73
2022/03/14 12:21:57;;;;;;;19.67;9.93;;;10.90;99.90;;;;;;5084319;28;20055;-72
2022/03/14 12:24:44;;;;;;;18.38;9.82;;;10.90;99.90;;;;;;5076156;28;20575;-73
2022/03/14 12:27:19;;;;;;;19.02;11.30;;;11.00;99.90;;;;;;5059747;28;20071;-73
2022/03/14 12:29:46;;;;;;;17.42;11.13;;;11.00;99.90;;;;;;5060735;28;20040;-73
2022/03/14 12:32:38;;;;;;;19.38;13.32;;;11.10;99.90;;;;;;5053174;28;20036;-73
2022/03/14 12:35:12;;;;;;;20.80;12.85;;;11.10;99.90;;;;;;5051361;28;20571;-73
2022/03/14 12:37:53;;;;;;;17.27;11.90;;;11.10;99.90;;;;;;5050087;28;20382;-72
2022/03/14 12:40:21;;;;;;;23.35;13.65;;;11.10;99.90;;;;;;5050714;28;20077;-72
2022/03/14 12:42:48;;;;;;;20.30;12.25;;;11.10;99.90;;;;;;5049800;28;20048;-72
2022/03/14 12:45:19;;;;;;;21.75;12.70;;;11.10;99.90;;;;;;5050771;28;20041;-72